Flight Track Log - Related Links

Times and Time Zones

All times are in EDT time to prevent confusion due to time zone crossing. See the AAY846 flight status page for this flight to view local times or setup timezone preferences in your user account.

Time Position Orientation Groundspeed Altitude Reporting Facility
EDT Latitude Longitude Course Direction KTS MPH feet Rate Location/Type
Wed 02:34:25 PM 27.9333 -82.7000 30° Northeast 179 206 900  Level Tampa TRACON
Wed 02:35:25 PM 27.9833 -82.6667 30° Northeast 216 249 3,100 2,166 Climbing Tampa TRACON
Wed 02:37:50 PM 28.1311 -82.7208 342° North 234 269 8,300 2,195 Climbing Jacksonville Center
Wed 02:38:50 PM 28.2083 -82.7489 342° North 265 305 10,600 1,800 Climbing Jacksonville Center
Wed 02:39:50 PM 28.2917 -82.7817 341° North 295 339 11,900 1,650 Climbing Jacksonville Center
Wed 02:40:50 PM 28.3900 -82.8264 338° Northwest 339 390 13,900 2,150 Climbing Jacksonville Center
Wed 02:41:50 PM 28.4881 -82.8714 338° Northwest 368 423 16,200 2,100 Climbing Jacksonville Center
Wed 02:42:50 PM 28.5903 -82.9186 338° Northwest 385 443 18,100 1,900 Climbing Jacksonville Center
Wed 02:43:50 PM 28.6967 -82.9589 342° North 397 457 20,000 1,800 Climbing Jacksonville Center
Wed 02:44:50 PM 28.8053 -83.0064 339° North 402 463 21,700 1,500 Climbing Jacksonville Center
Wed 02:45:50 PM 28.9200 -83.0539 340° North 415 478 23,000 1,400 Climbing Jacksonville Center
Wed 02:46:50 PM 29.0347 -83.1017 340° North 426 490 24,500 1,750 Climbing Jacksonville Center
Wed 02:47:50 PM 29.1514 -83.1517 339° North 433 498 26,500 1,700 Climbing Jacksonville Center
Wed 02:48:50 PM 29.2642 -83.1950 341° North 433 498 27,900 1,400 Climbing Jacksonville Center
Wed 02:49:50 PM 29.3767 -83.2500 337° Northwest 433 498 29,300 1,250 Climbing Jacksonville Center
Wed 02:50:50 PM 29.4975 -83.3125 336° Northwest 433 498 30,400 1,200 Climbing Jacksonville Center
Wed 02:51:50 PM 29.6081 -83.3681 336° Northwest 433 498 31,700 800 Climbing Jacksonville Center
Wed 02:52:50 PM 29.7164 -83.4186 338° Northwest 433 498 32,000 150 Climbing Jacksonville Center
Wed 02:53:50 PM 29.8247 -83.4719 337° Northwest 428 493 32,000  Level Jacksonville Center
Wed 02:54:50 PM 29.9289 -83.5228 337° Northwest 415 478 32,000  Level Jacksonville Center
Wed 02:55:50 PM 30.0350 -83.5764 336° Northwest 415 478 32,000  Level Jacksonville Center
Wed 02:56:50 PM 30.1411 -83.6300 336° Northwest 415 478 32,000  Level Jacksonville Center
Wed 02:57:50 PM 30.2433 -83.6811 337° Northwest 415 478 32,000  Level Jacksonville Center
Wed 02:58:50 PM 30.3494 -83.7328 337° Northwest 410 472 32,000  Level Jacksonville Center
Wed 02:59:50 PM 30.4575 -83.7892 336° Northwest 410 472 32,000  Level Jacksonville Center
Wed 03:00:50 PM 30.5428 -83.8308 337° Northwest 410 472 32,000  Level Jacksonville Center
Wed 03:01:50 PM 30.6614 -83.8900 337° Northwest 417 480 32,000  Level Jacksonville Center
Wed 03:02:50 PM 30.7694 -83.9467 336° Northwest 417 480 32,000  Level Jacksonville Center
Wed 03:03:50 PM 30.8756 -84.0011 336° Northwest 417 480 32,000  Level Jacksonville Center
Wed 03:04:50 PM 30.9836 -84.0581 336° Northwest 417 480 32,000  Level Jacksonville Center
Wed 03:05:50 PM 31.0917 -84.1128 337° Northwest 417 480 32,000  Level Jacksonville Center
Wed 03:06:50 PM 31.1975 -84.1678 336° Northwest 417 480 32,000  Level Jacksonville Center
Wed 03:07:50 PM 31.3036 -84.2225 336° Northwest 417 480 32,000  Level Jacksonville Center
Wed 03:08:50 PM 31.4114 -84.2778 336° Northwest 417 480 32,000  Level Jacksonville Center
Wed 03:09:50 PM 31.5175 -84.3306 337° Northwest 417 480 32,000  Level Jacksonville Center
Wed 03:12:09 PM 31.7750 -84.4664 336° Northwest 416 479 32,000  Level Atlanta Center
Wed 03:13:09 PM 31.8689 -84.5158 336° Northwest 416 479 32,000  Level Atlanta Center
Wed 03:14:09 PM 31.9750 -84.5703 336° Northwest 416 479 32,000  Level Atlanta Center
Wed 03:15:09 PM 32.0811 -84.6272 336° Northwest 416 479 32,000  Level Atlanta Center
Wed 03:16:09 PM 32.1833 -84.6794 337° Northwest 416 479 32,000  Level Atlanta Center
Wed 03:17:09 PM 32.2872 -84.7342 336° Northwest 411 473 32,000  Level Atlanta Center
Wed 03:18:09 PM 32.3933 -84.7917 335° Northwest 411 473 32,000  Level Atlanta Center
Wed 03:19:09 PM 32.5058 -84.8467 338° Northwest 411 473 32,000  Level Atlanta Center
Wed 03:20:09 PM 32.6097 -84.8994 337° Northwest 403 464 32,000  Level Atlanta Center
Wed 03:21:09 PM 32.7117 -84.9522 336° Northwest 398 458 32,000  Level Atlanta Center
Wed 03:22:09 PM 32.8053 -85.0100 333° Northwest 403 464 32,000  Level Atlanta Center
Wed 03:23:09 PM 32.9175 -85.0731 335° Northwest 403 464 32,000  Level Atlanta Center
Wed 03:24:09 PM 33.0192 -85.1239 337° Northwest 402 463 32,000  Level Atlanta Center
Wed 03:25:09 PM 33.1211 -85.1797 335° Northwest 402 463 32,000  Level Atlanta Center
Wed 03:26:10 PM 33.2228 -85.2358 335° Northwest 402 463 32,000  Level Atlanta Center
Wed 03:27:10 PM 33.3267 -85.2919 336° Northwest 396 456 32,000  Level Atlanta Center
Wed 03:28:09 PM 33.4303 -85.3481 336° Northwest 402 463 32,000  Level Atlanta Center
Wed 03:29:09 PM 33.5300 -85.4019 336° Northwest 397 457 32,000  Level Atlanta Center
Wed 03:30:09 PM 33.6233 -85.4508 336° Northwest 397 457 32,000  Level Atlanta Center
Wed 03:31:09 PM 33.7269 -85.5075 336° Northwest 402 463 32,000  Level Atlanta Center
Wed 03:32:10 PM 33.8286 -85.5617 336° Northwest 397 457 32,000  Level Atlanta Center
Wed 03:33:10 PM 33.9322 -85.6211 335° Northwest 402 463 32,000  Level Atlanta Center
Wed 03:34:09 PM 34.0339 -85.6756 336° Northwest 397 457 32,000  Level Atlanta Center
Wed 03:35:10 PM 34.1478 -85.7381 336° Northwest 397 457 32,000  Level Atlanta Center
Wed 03:36:09 PM 34.2492 -85.7956 335° Northwest 397 457 32,000  Level Atlanta Center
Wed 03:37:09 PM 34.3486 -85.8453 338° Northwest 397 457 32,000  Level Atlanta Center
Wed 03:38:09 PM 34.4522 -85.9003 336° Northwest 397 457 32,000  Level Atlanta Center
Wed 03:39:09 PM 34.5536 -85.9606 334° Northwest 403 464 32,000  Level Atlanta Center
Wed 03:40:09 PM 34.6569 -86.0161 336° Northwest 403 464 32,000  Level Atlanta Center
Wed 03:41:09 PM 34.7583 -86.0717 336° Northwest 397 457 32,000  Level Atlanta Center
Wed 03:42:09 PM 34.8597 -86.1297 335° Northwest 397 457 32,000  Level Atlanta Center
Wed 03:43:09 PM 34.9650 -86.1906 335° Northwest 397 457 32,000  Level Atlanta Center
Wed 03:44:10 PM 35.0642 -86.2464 335° Northwest 397 457 32,000  Level Atlanta Center
Wed 03:45:09 PM 35.1653 -86.3050 335° Northwest 397 457 32,000  Level Atlanta Center
Wed 03:46:33 PM 35.2961 -86.3808 335° Northwest 423 487 32,000  Level Memphis Center
Wed 03:47:32 PM 35.4067 -86.4469 334° Northwest 413 475 32,000  Level Memphis Center
Wed 03:48:33 PM 35.5086 -86.5033 336° Northwest 407 468 32,000  Level Memphis Center
Wed 03:49:33 PM 35.6125 -86.5622 335° Northwest 407 468 32,000  Level Memphis Center
Wed 03:50:33 PM 35.7144 -86.6217 335° Northwest 407 468 32,000  Level Memphis Center
Wed 03:51:33 PM 35.8142 -86.6783 335° Northwest 407 468 32,000  Level Memphis Center
Wed 03:52:33 PM 35.9139 -86.7381 334° Northwest 407 468 32,000  Level Memphis Center
Wed 03:53:33 PM 36.0156 -86.7953 336° Northwest 402 463 32,000  Level Memphis Center
Wed 03:54:33 PM 36.1133 -86.8550 334° Northwest 397 457 32,000  Level Memphis Center
Wed 03:55:33 PM 36.2022 -86.9078 334° Northwest 390 449 32,000  Level Memphis Center
Wed 03:56:33 PM 36.3061 -86.9678 335° Northwest 402 463 32,000  Level Memphis Center
Wed 03:57:33 PM 36.4183 -87.0328 335° Northwest 407 468 32,000  Level Memphis Center
Wed 03:58:33 PM 36.5178 -87.0906 335° Northwest 402 463 32,000  Level Memphis Center
Wed 03:59:33 PM 36.6194 -87.1486 335° Northwest 394 453 32,000  Level Memphis Center
Wed 04:00:33 PM 36.7167 -87.2069 334° Northwest 384 442 32,000  Level Memphis Center
Wed 04:01:33 PM 36.8161 -87.2650 335° Northwest 395 455 32,000  Level Memphis Center
Wed 04:02:33 PM 36.9178 -87.3261 334° Northwest 390 449 32,000  Level Memphis Center
Wed 04:04:25 PM 37.1006 -87.4336 335° Northwest 396 456 32,000  Level Indianapolis Center
Wed 04:05:27 PM 37.1997 -87.4925 335° Northwest 392 451 32,000  Level Indianapolis Center
Wed 04:06:29 PM 37.2992 -87.5519 335° Northwest 392 451 32,000  Level Indianapolis Center
Wed 04:07:31 PM 37.3986 -87.6122 334° Northwest 392 451 32,000  Level Indianapolis Center
Wed 04:08:33 PM 37.4989 -87.6703 335° Northwest 391 450 32,000  Level Indianapolis Center
Wed 04:09:35 PM 37.5975 -87.7344 333° Northwest 395 455 32,000  Level Indianapolis Center
Wed 04:10:38 PM 37.7142 -87.8053 334° Northwest 395 455 32,000  Level Indianapolis Center
Wed 04:12:13 PM 37.8517 -87.8894 334° Northwest 394 453 32,000  Level Kansas City Center
Wed 04:12:42 PM 37.9119 -87.9267 334° Northwest 395 455 32,000  Level Indianapolis Center
Wed 04:13:15 PM 37.9708 -87.9622 335° Northwest 394 453 32,000  Level Kansas City Center
Wed 04:14:17 PM 38.0714 -88.0250 334° Northwest 397 457 32,000  Level Kansas City Center
Wed 04:15:19 PM 38.1703 -88.0867 334° Northwest 394 453 32,000  Level Kansas City Center
Wed 04:15:48 PM 38.2092 -88.1106 334° Northwest 396 456 32,000  Level Indianapolis Center
Wed 04:16:21 PM 38.2689 -88.1472 334° Northwest 392 451 32,000  Level Kansas City Center
Wed 04:17:52 PM 38.4061 -88.2325 334° Northwest 391 450 32,000  Level Indianapolis Center
Wed 04:18:25 PM 38.4661 -88.2700 334° Northwest 391 450 32,000  Level Kansas City Center
Wed 04:19:27 PM 38.5650 -88.3325 334° Northwest 393 452 32,000  Level Kansas City Center
Wed 04:20:30 PM 38.6858 -88.4081 334° Northwest 396 456 32,000  Level Kansas City Center
Wed 04:21:32 PM 38.7856 -88.4711 334° Northwest 397 457 32,000  Level Kansas City Center
Wed 04:22:34 PM 38.8881 -88.5356 334° Northwest 402 463 32,000 -435 Level Kansas City Center
Wed 04:23:36 PM 38.9897 -88.6000 334° Northwest 403 464 31,100 -1,258 Descending Kansas City Center
Wed 04:24:38 PM 39.0889 -88.6636 334° Northwest 407 468 29,400 -1,694 Descending Kansas City Center
Wed 04:25:40 PM 39.1953 -88.7303 334° Northwest 419 482 27,600 -1,742 Descending Kansas City Center
Wed 04:26:42 PM 39.3000 -88.7975 334° Northwest 422 486 25,800 -1,935 Descending Kansas City Center
Wed 04:27:44 PM 39.4231 -88.8758 334° Northwest 416 479 23,600 -1,935 Descending Kansas City Center
Wed 04:28:46 PM 39.5261 -88.9428 333° Northwest 406 467 21,800 -1,742 Descending Kansas City Center
Wed 04:29:48 PM 39.6250 -89.0069 333° Northwest 399 459 20,000 -1,742 Descending Kansas City Center
Wed 04:30:50 PM 39.7236 -89.0711 333° Northwest 397 457 18,200 -1,694 Descending Kansas City Center
Wed 04:31:52 PM 39.8200 -89.1350 333° Northwest 392 451 16,500 -1,694 Descending Kansas City Center
Wed 04:32:54 PM 39.9144 -89.1956 334° Northwest 383 441 14,700 -1,742 Descending Kansas City Center
Wed 04:33:56 PM 40.0067 -89.2569 333° Northwest 375 432 12,900 -1,742 Descending Kansas City Center
Wed 04:34:58 PM 40.1114 -89.3247 334° Northwest 355 409 11,100 -1,065 Descending Kansas City Center
Wed 04:35:43 PM 40.1619 -89.3581 333° Northwest 350 403 11,000 -561 Descending Chicago Center
Wed 04:36:45 PM 40.2622 -89.4028 341° North 320 368 10,100 -1,113 Descending Chicago Center
Wed 04:37:47 PM 40.3400 -89.4325 344° North 301 346 8,700 -1,355 Descending Chicago Center
Wed 04:38:49 PM 40.4192 -89.4519 349° North 293 337 7,300 -1,403 Descending Chicago Center
Wed 04:39:51 PM 40.4958 -89.4514 360° North 281 323 5,800 -1,488 Descending Chicago Center
Wed 04:40:54 PM 40.5578 -89.4936 333° Northwest 268 308 4,200 -1,344 Descending Chicago Center
Wed 04:41:56 PM 40.5881 -89.5642 299° West 240 276 3,000 -1,258 Descending Chicago Center
Wed 04:42:58 PM 40.6275 -89.6317 308° West 211 243 1,600 -1,016 Descending Chicago Center
Wed 04:44:00 PM 40.6508 -89.6736 306° West 169 194 900 -484 Descending Chicago Center
Wed 04:45:02 PM 40.6728 -89.7108 308° West 158 182 600 -290 Descending Chicago Center

Login

Don't have an account? Register now (free) for customized features, flight alerts, and more!